sensor_id;sensor_type;location;lat;lon;timestamp;P1;durP1;ratioP1;P2;durP2;ratioP2
41875;SDS011;27555;50.808;4.402;2022-08-25T00:01:17;7.10;;;3.28;;
41875;SDS011;27555;50.808;4.402;2022-08-25T00:03:48;6.25;;;3.03;;
41875;SDS011;27555;50.808;4.402;2022-08-25T00:06:14;6.90;;;3.20;;
41875;SDS011;27555;50.808;4.402;2022-08-25T00:08:40;5.90;;;3.10;;
41875;SDS011;27555;50.808;4.402;2022-08-25T00:11:08;5.63;;;3.65;;
41875;SDS011;27555;50.808;4.402;2022-08-25T00:13:38;8.73;;;3.47;;
41875;SDS011;27555;50.808;4.402;2022-08-25T00:16:08;9.43;;;3.15;;
41875;SDS011;27555;50.808;4.402;2022-08-25T00:18:38;5.60;;;3.58;;
41875;SDS011;27555;50.808;4.402;2022-08-25T00:21:05;3.88;;;2.78;;
41875;SDS011;27555;50.808;4.402;2022-08-25T00:23:32;6.15;;;2.67;;
41875;SDS011;27555;50.808;4.402;2022-08-25T00:25:57;9.52;;;2.72;;
41875;SDS011;27555;50.808;4.402;2022-08-25T00:28:23;5.32;;;3.10;;
41875;SDS011;27555;50.808;4.402;2022-08-25T00:30:49;8.15;;;3.58;;
41875;SDS011;27555;50.808;4.402;2022-08-25T00:33:15;6.60;;;3.30;;
41875;SDS011;27555;50.808;4.402;2022-08-25T00:35:41;10.82;;;3.60;;
41875;SDS011;27555;50.808;4.402;2022-08-25T00:38:08;3.70;;;2.70;;
41875;SDS011;27555;50.808;4.402;2022-08-25T00:40:34;11.98;;;3.20;;
41875;SDS011;27555;50.808;4.402;2022-08-25T00:43:01;8.13;;;3.25;;
41875;SDS011;27555;50.808;4.402;2022-08-25T00:45:27;5.53;;;3.05;;
41875;SDS011;27555;50.808;4.402;2022-08-25T00:47:53;5.68;;;2.70;;
41875;SDS011;27555;50.808;4.402;2022-08-25T00:50:19;6.93;;;3.13;;
41875;SDS011;27555;50.808;4.402;2022-08-25T00:52:49;7.32;;;3.10;;
41875;SDS011;27555;50.808;4.402;2022-08-25T00:55:21;5.32;;;3.00;;
41875;SDS011;27555;50.808;4.402;2022-08-25T00:57:52;11.75;;;3.05;;
41875;SDS011;27555;50.808;4.402;2022-08-25T01:00:31;5.28;;;3.08;;
41875;SDS011;27555;50.808;4.402;2022-08-25T01:03:00;4.55;;;2.72;;
41875;SDS011;27555;50.808;4.402;2022-08-25T01:05:26;4.80;;;3.15;;
41875;SDS011;27555;50.808;4.402;2022-08-25T01:07:53;4.35;;;3.40;;
41875;SDS011;27555;50.808;4.402;2022-08-25T01:10:20;9.75;;;3.67;;
41875;SDS011;27555;50.808;4.402;2022-08-25T01:12:47;4.95;;;2.90;;
41875;SDS011;27555;50.808;4.402;2022-08-25T01:15:13;8.02;;;3.15;;
41875;SDS011;27555;50.808;4.402;2022-08-25T01:17:46;7.57;;;3.35;;
41875;SDS011;27555;50.808;4.402;2022-08-25T01:20:15;5.03;;;3.20;;
41875;SDS011;27555;50.808;4.402;2022-08-25T01:22:44;4.70;;;3.05;;
41875;SDS011;27555;50.808;4.402;2022-08-25T01:25:29;4.78;;;2.90;;
41875;SDS011;27555;50.808;4.402;2022-08-25T01:27:58;8.18;;;3.15;;
41875;SDS011;27555;50.808;4.402;2022-08-25T01:30:24;5.20;;;2.92;;
41875;SDS011;27555;50.808;4.402;2022-08-25T01:32:50;5.55;;;3.20;;
41875;SDS011;27555;50.808;4.402;2022-08-25T01:35:15;4.85;;;3.08;;
41875;SDS011;27555;50.808;4.402;2022-08-25T01:37:43;5.35;;;2.92;;
41875;SDS011;27555;50.808;4.402;2022-08-25T01:40:08;8.02;;;3.00;;
41875;SDS011;27555;50.808;4.402;2022-08-25T01:42:46;3.95;;;2.95;;
41875;SDS011;27555;50.808;4.402;2022-08-25T01:45:24;8.23;;;3.45;;
41875;SDS011;27555;50.808;4.402;2022-08-25T01:47:50;6.25;;;3.65;;
41875;SDS011;27555;50.808;4.402;2022-08-25T01:50:16;10.10;;;3.20;;
41875;SDS011;27555;50.808;4.402;2022-08-25T01:52:55;4.25;;;3.30;;
41875;SDS011;27555;50.808;4.402;2022-08-25T01:55:24;5.88;;;3.20;;
41875;SDS011;27555;50.808;4.402;2022-08-25T01:57:50;6.00;;;3.30;;
41875;SDS011;27555;50.808;4.402;2022-08-25T02:00:17;4.10;;;2.83;;
41875;SDS011;27555;50.808;4.402;2022-08-25T02:02:44;7.88;;;3.22;;
41875;SDS011;27555;50.808;4.402;2022-08-25T02:05:11;9.50;;;3.45;;
41875;SDS011;27555;50.808;4.402;2022-08-25T02:07:38;7.80;;;3.90;;
41875;SDS011;27555;50.808;4.402;2022-08-25T02:10:06;6.63;;;2.78;;
41875;SDS011;27555;50.808;4.402;2022-08-25T02:12:32;4.85;;;3.22;;
41875;SDS011;27555;50.808;4.402;2022-08-25T02:14:59;4.38;;;3.65;;
41875;SDS011;27555;50.808;4.402;2022-08-25T02:17:26;8.02;;;3.30;;
41875;SDS011;27555;50.808;4.402;2022-08-25T02:19:52;8.32;;;3.10;;
41875;SDS011;27555;50.808;4.402;2022-08-25T02:22:19;5.82;;;3.47;;
41875;SDS011;27555;50.808;4.402;2022-08-25T02:24:45;4.57;;;3.67;;
41875;SDS011;27555;50.808;4.402;2022-08-25T02:27:12;6.15;;;3.72;;
41875;SDS011;27555;50.808;4.402;2022-08-25T02:29:37;8.65;;;3.65;;
41875;SDS011;27555;50.808;4.402;2022-08-25T02:32:03;10.38;;;3.38;;
41875;SDS011;27555;50.808;4.402;2022-08-25T02:34:29;6.63;;;3.83;;
41875;SDS011;27555;50.808;4.402;2022-08-25T02:36:55;5.55;;;3.63;;
41875;SDS011;27555;50.808;4.402;2022-08-25T02:39:22;9.02;;;3.92;;
41875;SDS011;27555;50.808;4.402;2022-08-25T02:41:47;10.05;;;3.65;;
41875;SDS011;27555;50.808;4.402;2022-08-25T02:44:13;7.70;;;3.80;;
41875;SDS011;27555;50.808;4.402;2022-08-25T02:46:38;7.13;;;3.50;;
41875;SDS011;27555;50.808;4.402;2022-08-25T02:49:05;6.35;;;3.70;;
41875;SDS011;27555;50.808;4.402;2022-08-25T02:51:31;6.90;;;3.60;;
41875;SDS011;27555;50.808;4.402;2022-08-25T02:53:59;13.40;;;3.97;;
41875;SDS011;27555;50.808;4.402;2022-08-25T02:56:26;5.65;;;3.30;;
41875;SDS011;27555;50.808;4.402;2022-08-25T02:58:52;6.95;;;3.50;;
41875;SDS011;27555;50.808;4.402;2022-08-25T03:01:18;5.93;;;3.38;;
41875;SDS011;27555;50.808;4.402;2022-08-25T03:03:45;4.40;;;4.00;;
41875;SDS011;27555;50.808;4.402;2022-08-25T03:06:12;4.85;;;3.80;;
41875;SDS011;27555;50.808;4.402;2022-08-25T03:08:39;5.35;;;3.47;;
41875;SDS011;27555;50.808;4.402;2022-08-25T03:11:06;8.77;;;4.22;;
41875;SDS011;27555;50.808;4.402;2022-08-25T03:13:32;4.90;;;3.70;;
41875;SDS011;27555;50.808;4.402;2022-08-25T03:15:58;5.18;;;3.75;;
41875;SDS011;27555;50.808;4.402;2022-08-25T03:18:25;6.25;;;3.80;;
41875;SDS011;27555;50.808;4.402;2022-08-25T03:20:51;8.55;;;3.42;;
41875;SDS011;27555;50.808;4.402;2022-08-25T03:23:17;6.28;;;3.97;;
41875;SDS011;27555;50.808;4.402;2022-08-25T03:25:42;4.20;;;3.50;;
41875;SDS011;27555;50.808;4.402;2022-08-25T03:28:27;6.50;;;3.63;;
41875;SDS011;27555;50.808;4.402;2022-08-25T03:30:55;7.88;;;4.05;;
41875;SDS011;27555;50.808;4.402;2022-08-25T03:33:21;5.55;;;3.42;;
41875;SDS011;27555;50.808;4.402;2022-08-25T03:35:46;7.15;;;3.58;;
41875;SDS011;27555;50.808;4.402;2022-08-25T03:38:12;4.95;;;3.78;;
41875;SDS011;27555;50.808;4.402;2022-08-25T03:40:37;8.00;;;3.67;;
41875;SDS011;27555;50.808;4.402;2022-08-25T03:43:03;7.30;;;3.63;;
41875;SDS011;27555;50.808;4.402;2022-08-25T03:45:29;9.07;;;3.35;;
41875;SDS011;27555;50.808;4.402;2022-08-25T03:47:55;5.07;;;3.28;;
41875;SDS011;27555;50.808;4.402;2022-08-25T03:50:21;5.82;;;3.15;;
41875;SDS011;27555;50.808;4.402;2022-08-25T03:52:51;3.10;;;2.80;;
41875;SDS011;27555;50.808;4.402;2022-08-25T03:55:18;7.03;;;3.53;;
41875;SDS011;27555;50.808;4.402;2022-08-25T03:57:44;6.07;;;3.35;;
41875;SDS011;27555;50.808;4.402;2022-08-25T04:00:10;5.55;;;3.05;;
41875;SDS011;27555;50.808;4.402;2022-08-25T04:02:36;3.42;;;2.83;;
41875;SDS011;27555;50.808;4.402;2022-08-25T04:05:03;3.65;;;2.88;;
41875;SDS011;27555;50.808;4.402;2022-08-25T04:07:29;6.70;;;3.38;;
41875;SDS011;27555;50.808;4.402;2022-08-25T04:09:55;9.45;;;3.50;;
41875;SDS011;27555;50.808;4.402;2022-08-25T04:12:21;4.13;;;2.85;;
41875;SDS011;27555;50.808;4.402;2022-08-25T04:14:47;3.80;;;2.67;;
41875;SDS011;27555;50.808;4.402;2022-08-25T04:17:13;7.55;;;3.13;;
41875;SDS011;27555;50.808;4.402;2022-08-25T04:19:39;8.32;;;3.13;;
41875;SDS011;27555;50.808;4.402;2022-08-25T04:22:04;8.27;;;3.08;;
41875;SDS011;27555;50.808;4.402;2022-08-25T04:24:30;6.00;;;3.08;;
41875;SDS011;27555;50.808;4.402;2022-08-25T04:26:56;8.63;;;3.35;;
41875;SDS011;27555;50.808;4.402;2022-08-25T04:29:22;11.82;;;3.38;;
41875;SDS011;27555;50.808;4.402;2022-08-25T04:31:49;8.32;;;2.90;;
41875;SDS011;27555;50.808;4.402;2022-08-25T04:34:16;8.07;;;3.10;;
41875;SDS011;27555;50.808;4.402;2022-08-25T04:36:44;8.25;;;2.65;;
41875;SDS011;27555;50.808;4.402;2022-08-25T04:39:09;5.95;;;3.25;;
41875;SDS011;27555;50.808;4.402;2022-08-25T04:41:35;6.68;;;3.45;;
41875;SDS011;27555;50.808;4.402;2022-08-25T04:44:01;7.97;;;2.58;;
41875;SDS011;27555;50.808;4.402;2022-08-25T04:46:29;7.75;;;2.85;;
41875;SDS011;27555;50.808;4.402;2022-08-25T04:48:57;4.30;;;3.00;;
41875;SDS011;27555;50.808;4.402;2022-08-25T04:51:25;9.88;;;3.00;;
41875;SDS011;27555;50.808;4.402;2022-08-25T04:53:53;32.93;;;4.33;;
41875;SDS011;27555;50.808;4.402;2022-08-25T04:56:22;7.80;;;3.58;;
41875;SDS011;27555;50.808;4.402;2022-08-25T04:58:49;7.80;;;2.97;;
41875;SDS011;27555;50.808;4.402;2022-08-25T05:01:16;11.23;;;2.90;;
41875;SDS011;27555;50.808;4.402;2022-08-25T05:03:44;4.05;;;2.78;;
41875;SDS011;27555;50.808;4.402;2022-08-25T05:06:11;8.10;;;3.40;;
41875;SDS011;27555;50.808;4.402;2022-08-25T05:08:37;4.32;;;2.90;;
41875;SDS011;27555;50.808;4.402;2022-08-25T05:11:04;8.07;;;3.33;;
41875;SDS011;27555;50.808;4.402;2022-08-25T05:13:31;7.13;;;3.10;;
41875;SDS011;27555;50.808;4.402;2022-08-25T05:15:58;5.78;;;3.08;;
41875;SDS011;27555;50.808;4.402;2022-08-25T05:18:25;6.90;;;2.90;;
41875;SDS011;27555;50.808;4.402;2022-08-25T05:20:52;9.68;;;2.70;;
41875;SDS011;27555;50.808;4.402;2022-08-25T05:23:20;8.38;;;3.33;;
41875;SDS011;27555;50.808;4.402;2022-08-25T05:25:48;8.00;;;3.05;;
41875;SDS011;27555;50.808;4.402;2022-08-25T05:28:16;7.82;;;2.97;;
41875;SDS011;27555;50.808;4.402;2022-08-25T05:30:42;5.32;;;3.10;;
41875;SDS011;27555;50.808;4.402;2022-08-25T05:33:09;9.32;;;3.47;;
41875;SDS011;27555;50.808;4.402;2022-08-25T05:35:35;11.95;;;3.13;;
41875;SDS011;27555;50.808;4.402;2022-08-25T05:38:02;8.65;;;3.00;;
41875;SDS011;27555;50.808;4.402;2022-08-25T05:40:29;12.10;;;2.97;;
41875;SDS011;27555;50.808;4.402;2022-08-25T05:42:55;6.75;;;2.92;;
41875;SDS011;27555;50.808;4.402;2022-08-25T05:45:21;9.20;;;3.70;;
41875;SDS011;27555;50.808;4.402;2022-08-25T05:47:47;14.38;;;3.45;;
41875;SDS011;27555;50.808;4.402;2022-08-25T05:50:13;8.77;;;3.10;;
41875;SDS011;27555;50.808;4.402;2022-08-25T05:52:39;13.48;;;2.92;;
41875;SDS011;27555;50.808;4.402;2022-08-25T05:55:05;9.43;;;3.67;;
41875;SDS011;27555;50.808;4.402;2022-08-25T05:57:31;9.07;;;3.17;;
41875;SDS011;27555;50.808;4.402;2022-08-25T05:59:59;10.27;;;2.78;;
41875;SDS011;27555;50.808;4.402;2022-08-25T06:02:25;7.43;;;2.88;;
41875;SDS011;27555;50.808;4.402;2022-08-25T06:05:14;9.60;;;2.42;;
41875;SDS011;27555;50.808;4.402;2022-08-25T06:07:45;6.53;;;2.20;;
41875;SDS011;27555;50.808;4.402;2022-08-25T06:10:13;9.43;;;2.67;;
41875;SDS011;27555;50.808;4.402;2022-08-25T06:12:40;13.15;;;3.20;;
41875;SDS011;27555;50.808;4.402;2022-08-25T06:15:11;10.90;;;2.75;;
41875;SDS011;27555;50.808;4.402;2022-08-25T06:17:38;8.95;;;2.70;;
41875;SDS011;27555;50.808;4.402;2022-08-25T06:20:09;11.45;;;2.63;;
41875;SDS011;27555;50.808;4.402;2022-08-25T06:22:40;8.85;;;2.00;;
41875;SDS011;27555;50.808;4.402;2022-08-25T06:25:06;8.85;;;2.65;;
41875;SDS011;27555;50.808;4.402;2022-08-25T06:27:33;12.80;;;2.60;;
41875;SDS011;27555;50.808;4.402;2022-08-25T06:30:00;13.30;;;2.30;;
41875;SDS011;27555;50.808;4.402;2022-08-25T06:32:32;8.60;;;2.70;;
41875;SDS011;27555;50.808;4.402;2022-08-25T06:35:00;6.30;;;2.08;;
41875;SDS011;27555;50.808;4.402;2022-08-25T06:37:33;6.80;;;2.50;;
41875;SDS011;27555;50.808;4.402;2022-08-25T06:39:59;10.05;;;2.80;;
41875;SDS011;27555;50.808;4.402;2022-08-25T06:42:25;13.38;;;3.10;;
41875;SDS011;27555;50.808;4.402;2022-08-25T06:44:51;6.70;;;2.65;;
41875;SDS011;27555;50.808;4.402;2022-08-25T06:47:17;10.70;;;2.28;;
41875;SDS011;27555;50.808;4.402;2022-08-25T06:49:43;8.63;;;2.58;;
41875;SDS011;27555;50.808;4.402;2022-08-25T06:52:09;14.82;;;2.92;;
41875;SDS011;27555;50.808;4.402;2022-08-25T06:54:36;8.77;;;2.33;;
41875;SDS011;27555;50.808;4.402;2022-08-25T06:57:02;7.97;;;2.15;;
41875;SDS011;27555;50.808;4.402;2022-08-25T06:59:28;13.63;;;2.97;;
41875;SDS011;27555;50.808;4.402;2022-08-25T07:01:54;5.07;;;1.88;;
41875;SDS011;27555;50.808;4.402;2022-08-25T07:04:20;8.57;;;2.40;;
41875;SDS011;27555;50.808;4.402;2022-08-25T07:06:45;4.95;;;1.98;;
41875;SDS011;27555;50.808;4.402;2022-08-25T07:09:12;5.78;;;2.08;;
41875;SDS011;27555;50.808;4.402;2022-08-25T07:11:39;10.80;;;1.90;;
41875;SDS011;27555;50.808;4.402;2022-08-25T07:14:06;12.77;;;2.67;;
41875;SDS011;27555;50.808;4.402;2022-08-25T07:16:34;7.80;;;2.35;;
41875;SDS011;27555;50.808;4.402;2022-08-25T07:19:00;4.68;;;1.63;;
41875;SDS011;27555;50.808;4.402;2022-08-25T07:21:28;11.38;;;2.05;;
41875;SDS011;27555;50.808;4.402;2022-08-25T07:23:55;8.13;;;1.92;;
41875;SDS011;27555;50.808;4.402;2022-08-25T07:26:23;7.65;;;1.92;;
41875;SDS011;27555;50.808;4.402;2022-08-25T07:28:51;3.95;;;1.60;;
41875;SDS011;27555;50.808;4.402;2022-08-25T07:31:17;8.73;;;1.90;;
41875;SDS011;27555;50.808;4.402;2022-08-25T07:33:43;3.92;;;1.52;;
41875;SDS011;27555;50.808;4.402;2022-08-25T07:36:27;5.93;;;1.83;;
41875;SDS011;27555;50.808;4.402;2022-08-25T07:38:55;8.52;;;2.90;;
41875;SDS011;27555;50.808;4.402;2022-08-25T07:41:21;7.88;;;1.92;;
41875;SDS011;27555;50.808;4.402;2022-08-25T07:43:46;8.10;;;1.90;;
41875;SDS011;27555;50.808;4.402;2022-08-25T07:46:12;8.38;;;2.08;;
41875;SDS011;27555;50.808;4.402;2022-08-25T07:48:38;7.10;;;2.05;;
41875;SDS011;27555;50.808;4.402;2022-08-25T07:51:07;7.25;;;2.38;;
41875;SDS011;27555;50.808;4.402;2022-08-25T07:53:34;2.58;;;1.52;;
41875;SDS011;27555;50.808;4.402;2022-08-25T07:56:00;3.38;;;1.92;;
41875;SDS011;27555;50.808;4.402;2022-08-25T07:58:26;8.10;;;1.90;;
41875;SDS011;27555;50.808;4.402;2022-08-25T08:00:53;5.57;;;1.75;;
41875;SDS011;27555;50.808;4.402;2022-08-25T08:03:18;10.35;;;1.40;;
41875;SDS011;27555;50.808;4.402;2022-08-25T08:05:45;8.55;;;1.65;;
41875;SDS011;27555;50.808;4.402;2022-08-25T08:08:11;6.18;;;1.98;;
41875;SDS011;27555;50.808;4.402;2022-08-25T08:10:39;7.22;;;1.63;;
41875;SDS011;27555;50.808;4.402;2022-08-25T08:13:06;3.50;;;1.70;;
41875;SDS011;27555;50.808;4.402;2022-08-25T08:15:34;3.20;;;1.55;;
41875;SDS011;27555;50.808;4.402;2022-08-25T08:18:00;6.75;;;1.70;;
41875;SDS011;27555;50.808;4.402;2022-08-25T08:20:27;4.18;;;1.50;;
41875;SDS011;27555;50.808;4.402;2022-08-25T08:22:55;8.80;;;1.58;;
41875;SDS011;27555;50.808;4.402;2022-08-25T08:25:21;8.13;;;2.03;;
41875;SDS011;27555;50.808;4.402;2022-08-25T08:27:46;12.23;;;2.25;;
41875;SDS011;27555;50.808;4.402;2022-08-25T08:30:13;3.50;;;1.55;;
41875;SDS011;27555;50.808;4.402;2022-08-25T08:32:38;9.98;;;1.70;;
41875;SDS011;27555;50.808;4.402;2022-08-25T08:35:04;16.52;;;1.92;;
41875;SDS011;27555;50.808;4.402;2022-08-25T08:37:31;10.50;;;1.77;;
41875;SDS011;27555;50.808;4.402;2022-08-25T08:39:57;5.88;;;1.75;;
41875;SDS011;27555;50.808;4.402;2022-08-25T08:45:00;8.57;;;1.80;;
41875;SDS011;27555;50.808;4.402;2022-08-25T08:47:58;9.13;;;1.60;;
41875;SDS011;27555;50.808;4.402;2022-08-25T08:50:29;10.25;;;1.80;;
41875;SDS011;27555;50.808;4.402;2022-08-25T08:56:04;2.63;;;1.52;;
41875;SDS011;27555;50.808;4.402;2022-08-25T09:01:44;3.72;;;1.73;;
41875;SDS011;27555;50.808;4.402;2022-08-25T09:04:17;8.88;;;1.58;;
41875;SDS011;27555;50.808;4.402;2022-08-25T09:06:47;7.35;;;1.88;;
41875;SDS011;27555;50.808;4.402;2022-08-25T09:09:19;6.23;;;1.27;;
41875;SDS011;27555;50.808;4.402;2022-08-25T09:12:11;4.47;;;1.27;;
41875;SDS011;27555;50.808;4.402;2022-08-25T09:17:17;3.30;;;1.42;;
41875;SDS011;27555;50.808;4.402;2022-08-25T09:20:09;10.02;;;1.80;;
41875;SDS011;27555;50.808;4.402;2022-08-25T09:23:06;6.07;;;1.70;;
41875;SDS011;27555;50.808;4.402;2022-08-25T09:25:52;15.02;;;1.80;;
41875;SDS011;27555;50.808;4.402;2022-08-25T09:28:48;7.55;;;1.55;;
41875;SDS011;27555;50.808;4.402;2022-08-25T09:31:25;5.97;;;1.60;;
41875;SDS011;27555;50.808;4.402;2022-08-25T09:33:56;4.90;;;1.33;;
41875;SDS011;27555;50.808;4.402;2022-08-25T09:36:24;5.55;;;1.52;;
41875;SDS011;27555;50.808;4.402;2022-08-25T09:38:50;7.70;;;1.60;;
41875;SDS011;27555;50.808;4.402;2022-08-25T09:41:17;3.08;;;1.60;;
41875;SDS011;27555;50.808;4.402;2022-08-25T09:43:59;4.65;;;1.38;;
41875;SDS011;27555;50.808;4.402;2022-08-25T09:46:25;6.72;;;1.73;;
41875;SDS011;27555;50.808;4.402;2022-08-25T09:48:53;8.02;;;1.60;;
41875;SDS011;27555;50.808;4.402;2022-08-25T09:51:35;4.22;;;1.38;;
41875;SDS011;27555;50.808;4.402;2022-08-25T10:01:54;2.03;;;1.40;;
41875;SDS011;27555;50.808;4.402;2022-08-25T10:06:51;7.10;;;1.25;;
41875;SDS011;27555;50.808;4.402;2022-08-25T10:09:33;13.50;;;1.77;;
41875;SDS011;27555;50.808;4.402;2022-08-25T10:12:14;4.72;;;1.40;;
41875;SDS011;27555;50.808;4.402;2022-08-25T10:14:50;6.37;;;1.57;;
41875;SDS011;27555;50.808;4.402;2022-08-25T10:17:17;5.80;;;1.13;;
41875;SDS011;27555;50.808;4.402;2022-08-25T10:19:51;6.80;;;1.50;;
41875;SDS011;27555;50.808;4.402;2022-08-25T10:24:55;10.25;;;1.75;;
41875;SDS011;27555;50.808;4.402;2022-08-25T10:33:30;2.92;;;1.20;;
41875;SDS011;27555;50.808;4.402;2022-08-25T10:36:08;4.55;;;1.30;;
41875;SDS011;27555;50.808;4.402;2022-08-25T10:38:41;4.72;;;1.40;;
41875;SDS011;27555;50.808;4.402;2022-08-25T10:44:09;5.30;;;1.58;;
41875;SDS011;27555;50.808;4.402;2022-08-25T10:47:13;3.83;;;1.30;;
41875;SDS011;27555;50.808;4.402;2022-08-25T10:50:03;4.55;;;1.33;;
41875;SDS011;27555;50.808;4.402;2022-08-25T10:55:12;9.98;;;1.70;;
41875;SDS011;27555;50.808;4.402;2022-08-25T10:57:49;6.88;;;1.85;;
41875;SDS011;27555;50.808;4.402;2022-08-25T11:00:37;3.17;;;1.25;;
41875;SDS011;27555;50.808;4.402;2022-08-25T11:05:44;4.32;;;1.27;;
41875;SDS011;27555;50.808;4.402;2022-08-25T11:08:46;2.63;;;1.30;;
41875;SDS011;27555;50.808;4.402;2022-08-25T11:11:25;6.32;;;1.30;;
41875;SDS011;27555;50.808;4.402;2022-08-25T11:14:39;2.97;;;1.25;;
41875;SDS011;27555;50.808;4.402;2022-08-25T11:16:54;6.63;;;1.23;;
41875;SDS011;27555;50.808;4.402;2022-08-25T11:21:59;3.40;;;1.35;;
41875;SDS011;27555;50.808;4.402;2022-08-25T11:27:18;22.70;;;1.80;;
41875;SDS011;27555;50.808;4.402;2022-08-25T11:29:53;2.70;;;1.40;;
41875;SDS011;27555;50.808;4.402;2022-08-25T11:32:31;4.82;;;1.35;;
41875;SDS011;27555;50.808;4.402;2022-08-25T11:37:26;3.03;;;1.30;;
41875;SDS011;27555;50.808;4.402;2022-08-25T11:45:55;8.10;;;1.65;;
41875;SDS011;27555;50.808;4.402;2022-08-25T11:48:53;4.30;;;1.42;;
41875;SDS011;27555;50.808;4.402;2022-08-25T11:51:28;7.82;;;1.73;;
41875;SDS011;27555;50.808;4.402;2022-08-25T12:02:27;7.10;;;1.98;;
41875;SDS011;27555;50.808;4.402;2022-08-25T12:04:57;2.78;;;1.27;;
41875;SDS011;27555;50.808;4.402;2022-08-25T12:07:56;3.13;;;1.20;;
41875;SDS011;27555;50.808;4.402;2022-08-25T12:13:46;5.50;;;1.30;;
41875;SDS011;27555;50.808;4.402;2022-08-25T12:21:47;3.95;;;1.33;;
41875;SDS011;27555;50.808;4.402;2022-08-25T12:24:14;3.17;;;1.42;;
41875;SDS011;27555;50.808;4.402;2022-08-25T12:27:02;5.57;;;1.42;;
41875;SDS011;27555;50.808;4.402;2022-08-25T12:35:00;3.92;;;1.50;;
41875;SDS011;27555;50.808;4.402;2022-08-25T12:40:52;3.03;;;1.30;;
41875;SDS011;27555;50.808;4.402;2022-08-25T12:43:28;5.32;;;1.30;;
41875;SDS011;27555;50.808;4.402;2022-08-25T12:49:01;10.70;;;1.48;;
41875;SDS011;27555;50.808;4.402;2022-08-25T12:56:46;2.53;;;1.40;;
41875;SDS011;27555;50.808;4.402;2022-08-25T12:59:21;3.90;;;1.40;;
41875;SDS011;27555;50.808;4.402;2022-08-25T13:07:42;5.38;;;0.98;;
41875;SDS011;27555;50.808;4.402;2022-08-25T13:16:05;2.28;;;1.13;;
41875;SDS011;27555;50.808;4.402;2022-08-25T13:18:34;3.55;;;1.20;;
41875;SDS011;27555;50.808;4.402;2022-08-25T13:21:03;7.55;;;1.25;;
41875;SDS011;27555;50.808;4.402;2022-08-25T13:23:31;4.18;;;1.15;;
41875;SDS011;27555;50.808;4.402;2022-08-25T13:26:00;1.85;;;1.10;;
41875;SDS011;27555;50.808;4.402;2022-08-25T13:28:31;2.88;;;1.50;;
41875;SDS011;27555;50.808;4.402;2022-08-25T13:31:05;2.50;;;1.40;;
41875;SDS011;27555;50.808;4.402;2022-08-25T13:33:56;2.95;;;1.30;;
41875;SDS011;27555;50.808;4.402;2022-08-25T13:36:31;4.07;;;1.55;;
41875;SDS011;27555;50.808;4.402;2022-08-25T13:39:25;5.43;;;1.05;;
41875;SDS011;27555;50.808;4.402;2022-08-25T13:41:52;5.88;;;1.55;;
41875;SDS011;27555;50.808;4.402;2022-08-25T13:44:20;2.78;;;1.23;;
41875;SDS011;27555;50.808;4.402;2022-08-25T13:47:10;2.28;;;1.27;;
41875;SDS011;27555;50.808;4.402;2022-08-25T13:49:48;8.95;;;2.00;;
41875;SDS011;27555;50.808;4.402;2022-08-25T13:52:16;5.97;;;1.55;;
41875;SDS011;27555;50.808;4.402;2022-08-25T13:54:50;6.75;;;1.58;;
41875;SDS011;27555;50.808;4.402;2022-08-25T13:57:22;4.05;;;1.20;;
41875;SDS011;27555;50.808;4.402;2022-08-25T13:59:54;5.38;;;1.50;;
41875;SDS011;27555;50.808;4.402;2022-08-25T14:02:42;7.15;;;1.25;;
41875;SDS011;27555;50.808;4.402;2022-08-25T14:05:42;6.35;;;1.45;;
41875;SDS011;27555;50.808;4.402;2022-08-25T14:08:29;6.60;;;1.58;;
41875;SDS011;27555;50.808;4.402;2022-08-25T14:11:11;7.53;;;1.45;;
41875;SDS011;27555;50.808;4.402;2022-08-25T14:14:02;9.45;;;2.53;;
41875;SDS011;27555;50.808;4.402;2022-08-25T14:16:33;4.35;;;1.60;;
41875;SDS011;27555;50.808;4.402;2022-08-25T14:19:20;3.55;;;1.42;;
41875;SDS011;27555;50.808;4.402;2022-08-25T14:21:47;13.05;;;2.15;;
41875;SDS011;27555;50.808;4.402;2022-08-25T14:24:15;10.75;;;2.33;;
41875;SDS011;27555;50.808;4.402;2022-08-25T14:26:42;16.52;;;2.75;;
41875;SDS011;27555;50.808;4.402;2022-08-25T14:29:09;14.73;;;3.40;;
41875;SDS011;27555;50.808;4.402;2022-08-25T14:31:36;19.30;;;3.45;;
41875;SDS011;27555;50.808;4.402;2022-08-25T14:34:28;23.65;;;3.28;;
41875;SDS011;27555;50.808;4.402;2022-08-25T14:36:55;17.95;;;3.15;;
41875;SDS011;27555;50.808;4.402;2022-08-25T14:39:25;10.00;;;2.97;;
41875;SDS011;27555;50.808;4.402;2022-08-25T14:44:18;11.48;;;2.92;;
41875;SDS011;27555;50.808;4.402;2022-08-25T14:46:47;7.82;;;3.00;;
41875;SDS011;27555;50.808;4.402;2022-08-25T14:49:19;11.85;;;2.45;;
41875;SDS011;27555;50.808;4.402;2022-08-25T14:51:51;8.32;;;2.38;;
41875;SDS011;27555;50.808;4.402;2022-08-25T14:54:17;5.82;;;2.55;;
41875;SDS011;27555;50.808;4.402;2022-08-25T14:56:46;10.32;;;2.90;;
41875;SDS011;27555;50.808;4.402;2022-08-25T14:59:13;6.40;;;2.53;;
41875;SDS011;27555;50.808;4.402;2022-08-25T15:01:39;9.63;;;2.70;;
41875;SDS011;27555;50.808;4.402;2022-08-25T15:04:12;10.40;;;3.05;;
41875;SDS011;27555;50.808;4.402;2022-08-25T15:06:40;12.65;;;2.70;;
41875;SDS011;27555;50.808;4.402;2022-08-25T15:09:07;9.93;;;2.92;;
41875;SDS011;27555;50.808;4.402;2022-08-25T15:11:37;9.32;;;2.10;;
41875;SDS011;27555;50.808;4.402;2022-08-25T15:14:04;15.65;;;2.67;;
41875;SDS011;27555;50.808;4.402;2022-08-25T15:16:33;7.13;;;2.55;;
41875;SDS011;27555;50.808;4.402;2022-08-25T15:19:08;9.63;;;2.65;;
41875;SDS011;27555;50.808;4.402;2022-08-25T15:21:38;15.32;;;3.20;;
41875;SDS011;27555;50.808;4.402;2022-08-25T15:24:05;8.52;;;1.92;;
41875;SDS011;27555;50.808;4.402;2022-08-25T15:26:42;7.85;;;2.20;;
41875;SDS011;27555;50.808;4.402;2022-08-25T15:29:11;8.32;;;3.03;;
41875;SDS011;27555;50.808;4.402;2022-08-25T15:31:37;21.55;;;3.50;;
41875;SDS011;27555;50.808;4.402;2022-08-25T15:34:06;12.13;;;4.55;;
41875;SDS011;27555;50.808;4.402;2022-08-25T15:36:33;12.43;;;3.60;;
41875;SDS011;27555;50.808;4.402;2022-08-25T15:39:00;11.90;;;4.18;;
41875;SDS011;27555;50.808;4.402;2022-08-25T15:41:26;17.20;;;4.95;;
41875;SDS011;27555;50.808;4.402;2022-08-25T15:43:54;12.23;;;4.43;;
41875;SDS011;27555;50.808;4.402;2022-08-25T15:46:21;10.82;;;4.43;;
41875;SDS011;27555;50.808;4.402;2022-08-25T15:48:48;10.30;;;5.17;;
41875;SDS011;27555;50.808;4.402;2022-08-25T15:51:14;11.10;;;5.63;;
41875;SDS011;27555;50.808;4.402;2022-08-25T15:53:42;12.35;;;5.80;;
41875;SDS011;27555;50.808;4.402;2022-08-25T15:56:08;11.88;;;5.55;;
41875;SDS011;27555;50.808;4.402;2022-08-25T15:58:38;11.32;;;5.00;;
41875;SDS011;27555;50.808;4.402;2022-08-25T16:01:03;11.80;;;5.38;;
41875;SDS011;27555;50.808;4.402;2022-08-25T16:03:29;14.45;;;5.25;;
41875;SDS011;27555;50.808;4.402;2022-08-25T16:05:55;9.13;;;5.75;;
41875;SDS011;27555;50.808;4.402;2022-08-25T16:08:21;15.52;;;5.40;;
41875;SDS011;27555;50.808;4.402;2022-08-25T16:10:47;15.88;;;5.53;;
41875;SDS011;27555;50.808;4.402;2022-08-25T16:13:12;15.65;;;6.32;;
41875;SDS011;27555;50.808;4.402;2022-08-25T16:15:38;13.55;;;5.10;;
41875;SDS011;27555;50.808;4.402;2022-08-25T16:18:05;9.60;;;4.03;;
41875;SDS011;27555;50.808;4.402;2022-08-25T16:20:31;15.20;;;4.72;;
41875;SDS011;27555;50.808;4.402;2022-08-25T16:22:58;12.80;;;4.80;;
41875;SDS011;27555;50.808;4.402;2022-08-25T16:25:26;8.52;;;4.00;;
41875;SDS011;27555;50.808;4.402;2022-08-25T16:27:52;10.10;;;4.05;;
41875;SDS011;27555;50.808;4.402;2022-08-25T16:30:18;15.32;;;4.10;;
41875;SDS011;27555;50.808;4.402;2022-08-25T16:32:44;9.55;;;4.97;;
41875;SDS011;27555;50.808;4.402;2022-08-25T16:35:16;14.45;;;4.70;;
41875;SDS011;27555;50.808;4.402;2022-08-25T16:37:41;8.15;;;4.72;;
41875;SDS011;27555;50.808;4.402;2022-08-25T16:40:08;10.77;;;5.32;;
41875;SDS011;27555;50.808;4.402;2022-08-25T16:45:03;11.93;;;5.38;;